Time;durP1;ratioP1;P1;durP2;ratioP2;P2;SDS_P1;SDS_P2;PMS_P1;PMS_P2;Temp;Humidity;BMP_temperature;BMP_pressure;BME280_temperature;BME280_humidity;BME280_pressure;Samples;Min_cycle;Max_cycle;Signal;HPM_P1;HPM_P2
2024/02/06 00:01:29;;;;;;;7.82;3.60;;;;;;;13.18;35.11;94968.50;4167259;28;20064;-70
2024/02/06 00:03:31;;;;;;;7.35;3.67;;;;;;;13.17;35.18;94971.31;4180239;28;20523;-67
2024/02/06 00:05:33;;;;;;;7.18;3.53;;;;;;;13.23;35.11;94983.78;4176546;28;20099;-69
2024/02/06 00:07:35;;;;;;;6.07;3.13;;;;;;;13.25;34.73;94992.31;4177349;28;20094;-69
2024/02/06 00:09:37;;;;;;;11.80;3.55;;;;;;;13.24;34.33;94980.16;4155114;28;20093;-68
2024/02/06 00:11:39;;;;;;;6.72;3.35;;;;;;;13.27;34.19;94977.19;4168188;28;20072;-67
2024/02/06 00:13:40;;;;;;;5.40;3.15;;;;;;;13.29;33.72;94977.88;4177280;28;20074;-69
2024/02/06 00:15:43;;;;;;;9.05;3.83;;;;;;;13.28;34.07;94981.47;4163587;28;20053;-69
2024/02/06 00:17:45;;;;;;;8.07;4.10;;;;;;;13.19;34.37;94988.56;4159063;28;20059;-66
2024/02/06 00:19:47;;;;;;;8.35;5.15;;;;;;;12.81;37.01;94990.91;4176990;28;20456;-67
2024/02/06 00:21:49;;;;;;;10.80;6.07;;;;;;;12.02;39.91;94992.31;4162509;28;20053;-67
2024/02/06 00:23:51;;;;;;;8.38;5.50;;;;;;;11.62;40.80;94988.56;4176263;28;20052;-68
2024/02/06 00:25:53;;;;;;;11.75;5.93;;;;;;;10.97;41.79;94989.88;4178085;28;20045;-70
2024/02/06 00:27:55;;;;;;;9.25;5.85;;;;;;;10.74;42.66;94989.56;4179118;28;20050;-67
2024/02/06 00:29:57;;;;;;;8.75;5.63;;;;;;;10.71;42.52;94994.25;4177293;28;20725;-67
2024/02/06 00:31:58;;;;;;;9.50;5.82;;;;;;;10.68;42.56;94994.59;4174019;28;20048;-67
2024/02/06 00:34:00;;;;;;;8.45;5.35;;;;;;;10.51;43.46;94985.78;4135356;28;20050;-66
2024/02/06 00:36:02;;;;;;;9.75;5.43;;;;;;;10.48;43.48;94994.75;4180785;28;20075;-69
2024/02/06 00:38:04;;;;;;;9.32;5.20;;;;;;;10.26;44.00;94988.16;4180059;28;20124;-67
2024/02/06 00:40:08;;;;;;;8.93;5.10;;;;;;;10.11;43.79;94993.09;4182878;28;20064;-69
2024/02/06 00:42:10;;;;;;;12.15;5.70;;;;;;;10.12;44.68;94989.50;4170068;28;20059;-68
2024/02/06 00:44:12;;;;;;;11.00;6.00;;;;;;;10.09;44.55;94983.72;4161872;28;20107;-68
2024/02/06 00:46:13;;;;;;;7.80;5.35;;;;;;;10.08;44.58;94990.75;4174374;28;20384;-67
2024/02/06 00:48:15;;;;;;;12.05;5.30;;;;;;;9.99;44.95;94991.66;4161393;28;20465;-70
2024/02/06 00:50:18;;;;;;;13.65;5.82;;;;;;;9.93;45.12;94990.44;4180225;28;20053;-66
2024/02/06 00:52:21;;;;;;;9.25;5.45;;;;;;;10.01;45.07;94992.31;4145463;28;20077;-69
2024/02/06 00:54:23;;;;;;;8.75;5.50;;;;;;;10.03;45.06;94995.63;4185135;28;20095;-67
2024/02/06 00:56:25;;;;;;;9.80;5.20;;;;;;;9.92;45.79;94990.59;4185224;28;20411;-69
2024/02/06 00:58:26;;;;;;;9.63;5.72;;;;;;;9.86;46.05;94986.78;4166669;28;20121;-69
2024/02/06 01:00:28;;;;;;;8.65;6.15;;;;;;;9.98;45.50;94984.75;4184910;28;20041;-68
2024/02/06 01:02:30;;;;;;;7.60;5.60;;;;;;;9.87;45.94;94990.22;4182546;28;20103;-69
2024/02/06 01:04:32;;;;;;;11.70;5.90;;;;;;;9.77;45.83;94998.94;4179337;28;20040;-67
2024/02/06 01:06:34;;;;;;;8.73;5.90;;;;;;;9.84;46.08;94989.53;4178329;28;20132;-69
2024/02/06 01:08:35;;;;;;;12.32;6.32;;;;;;;9.74;46.23;94990.56;4160286;28;20550;-69
2024/02/06 01:10:37;;;;;;;10.07;5.70;;;;;;;9.63;46.47;94995.00;4157141;28;20057;-70
2024/02/06 01:12:39;;;;;;;10.05;6.13;;;;;;;9.60;46.51;94986.66;4146772;28;20045;-68
2024/02/06 01:14:41;;;;;;;14.25;5.85;;;;;;;9.60;46.44;94995.31;4145721;28;20382;-69
2024/02/06 01:16:43;;;;;;;9.02;5.43;;;;;;;9.66;45.35;94988.69;4177596;28;20049;-69
2024/02/06 01:18:44;;;;;;;8.75;5.90;;;;;;;9.74;45.50;94983.53;4181230;28;20072;-69
2024/02/06 01:20:46;;;;;;;9.82;6.03;;;;;;;9.80;45.07;94990.78;4163084;28;20103;-69
2024/02/06 01:22:48;;;;;;;11.07;5.70;;;;;;;9.76;45.50;94986.81;4179085;28;20048;-67
2024/02/06 01:24:50;;;;;;;10.80;6.25;;;;;;;9.84;45.21;94986.09;4184283;28;20127;-68
2024/02/06 01:26:52;;;;;;;11.43;5.60;;;;;;;9.81;45.30;94984.59;4156888;28;20428;-68
2024/02/06 01:28:53;;;;;;;11.98;6.03;;;;;;;9.70;45.58;94991.81;4160056;28;20452;-69
2024/02/06 01:30:55;;;;;;;13.13;6.13;;;;;;;9.63;45.45;94988.97;4185361;28;20064;-71
2024/02/06 01:32:57;;;;;;;9.40;5.03;;;;;;;9.58;45.63;94988.59;4157137;28;20053;-68
2024/02/06 01:34:59;;;;;;;9.35;5.88;;;;;;;9.72;45.28;94987.25;4160813;28;20076;-69
2024/02/06 01:37:01;;;;;;;9.32;5.40;;;;;;;9.77;44.68;94982.44;4177912;28;20508;-68
2024/02/06 01:39:03;;;;;;;11.18;5.63;;;;;;;9.89;44.61;94983.03;4172691;28;20053;-68
2024/02/06 01:41:05;;;;;;;8.95;5.00;;;;;;;9.82;44.80;94988.84;4164510;28;20473;-68
2024/02/06 01:43:07;;;;;;;10.27;5.20;;;;;;;9.83;44.27;94990.53;4170148;28;20072;-67
2024/02/06 01:45:09;;;;;;;9.95;5.00;;;;;;;9.85;44.49;94987.72;4157167;28;20137;-68
2024/02/06 01:47:14;;;;;;;8.63;5.40;;;;;;;9.77;44.39;94982.44;4166495;28;20056;-69
2024/02/06 01:49:15;;;;;;;10.55;5.53;;;;;;;9.90;44.20;94989.94;4161375;28;20074;-69
2024/02/06 01:51:18;;;;;;;11.30;5.22;;;;;;;9.85;44.35;94985.13;4155080;28;20136;-68
2024/02/06 01:53:21;;;;;;;8.60;5.00;;;;;;;9.66;44.48;94993.94;4163799;28;20107;-67
2024/02/06 01:55:23;;;;;;;10.40;5.50;;;;;;;9.67;44.19;94990.31;4146229;28;20069;-68
2024/02/06 01:57:26;;;;;;;11.32;5.78;;;;;;;9.67;43.85;94997.34;4176945;28;20084;-68
2024/02/06 01:59:28;;;;;;;11.50;5.07;;;;;;;9.74;43.80;94999.22;4166004;28;20057;-68
2024/02/06 02:01:30;;;;;;;9.85;5.35;;;;;;;9.68;44.50;94996.38;4160941;28;20053;-67
2024/02/06 02:03:32;;;;;;;8.32;5.00;;;;;;;9.77;43.72;94998.13;4158867;28;20263;-69
2024/02/06 02:05:34;;;;;;;9.88;5.57;;;;;;;9.82;43.69;94994.09;4175198;28;20049;-68
2024/02/06 02:07:36;;;;;;;10.48;5.35;;;;;;;9.69;43.99;94995.41;4160544;28;20056;-69
2024/02/06 02:09:38;;;;;;;10.07;5.43;;;;;;;9.53;44.48;94994.25;4143701;28;20141;-68
2024/02/06 02:11:40;;;;;;;9.13;5.80;;;;;;;9.53;44.54;94996.88;4191379;28;20041;-68
2024/02/06 02:13:42;;;;;;;10.55;5.28;;;;;;;9.67;44.01;94987.72;4183872;28;20296;-70
2024/02/06 02:15:44;;;;;;;10.20;5.63;;;;;;;9.66;43.97;94980.00;4159012;28;20452;-69
2024/02/06 02:17:50;;;;;;;13.27;5.40;;;;;;;9.66;43.48;94970.38;4173657;28;20603;-69
2024/02/06 02:19:52;;;;;;;11.43;5.45;;;;;;;9.66;43.77;94970.38;4157641;28;20186;-68
2024/02/06 02:21:54;;;;;;;9.02;5.35;;;;;;;9.72;43.08;94971.56;4178958;28;20452;-67
2024/02/06 02:23:56;;;;;;;8.73;5.30;;;;;;;9.79;42.67;94968.22;4176985;28;20064;-69
2024/02/06 02:25:58;;;;;;;8.02;5.38;;;;;;;9.87;42.54;94956.19;4148947;28;20045;-68
2024/02/06 02:28:00;;;;;;;10.52;5.45;;;;;;;9.81;43.02;94968.91;4148744;28;20049;-69
2024/02/06 02:30:12;;;;;;;7.75;5.15;;;;;;;9.76;42.54;94962.47;4180204;28;20049;-69
2024/02/06 02:32:14;;;;;;;8.07;4.78;;;;;;;9.68;42.46;94963.22;4152971;28;20484;-68
2024/02/06 02:34:16;;;;;;;9.88;4.78;;;;;;;9.66;42.40;94962.53;4154301;28;20072;-67
2024/02/06 02:36:18;;;;;;;9.23;4.55;;;;;;;9.71;42.09;94962.91;4162848;28;20064;-69
2024/02/06 02:38:20;;;;;;;9.43;4.75;;;;;;;9.74;42.23;94964.41;4186206;28;20080;-69
2024/02/06 02:40:23;;;;;;;9.50;4.47;;;;;;;9.80;41.70;94969.84;4160382;28;20128;-69
2024/02/06 02:42:24;;;;;;;7.15;4.30;;;;;;;9.92;41.63;94967.06;4159672;28;20584;-68
2024/02/06 02:44:26;;;;;;;10.85;4.15;;;;;;;10.02;41.05;94967.78;4188007;28;20055;-69
2024/02/06 02:46:28;;;;;;;9.20;5.07;;;;;;;9.82;42.44;94970.53;4139470;28;20245;-66
2024/02/06 02:48:30;;;;;;;8.95;5.00;;;;;;;9.79;42.67;94973.47;4193781;28;20040;-67
2024/02/06 02:50:32;;;;;;;9.68;4.68;;;;;;;9.75;42.90;94972.09;4174288;28;20052;-68
2024/02/06 02:52:34;;;;;;;6.70;4.20;;;;;;;9.82;41.99;94983.63;4167714;28;20476;-68
2024/02/06 02:54:36;;;;;;;8.32;4.28;;;;;;;9.74;42.45;94985.31;4180236;28;20057;-69
2024/02/06 02:56:37;;;;;;;8.38;4.93;;;;;;;9.80;41.90;94984.75;4168061;28;20213;-69
2024/02/06 02:58:39;;;;;;;9.40;5.10;;;;;;;9.84;41.62;94992.16;4183204;28;20049;-68
2024/02/06 03:00:41;;;;;;;8.88;5.28;;;;;;;9.92;41.14;94988.00;4180887;28;20071;-68
2024/02/06 03:02:43;;;;;;;9.93;5.55;;;;;;;9.83;41.73;94990.53;4182588;28;20491;-68
2024/02/06 03:04:45;;;;;;;9.52;5.47;;;;;;;9.71;41.42;94988.25;4163590;28;20475;-68
2024/02/06 03:06:47;;;;;;;8.25;5.07;;;;;;;9.55;41.97;94988.88;4178435;28;20056;-69
2024/02/06 03:08:49;;;;;;;13.43;5.13;;;;;;;9.61;42.27;94994.38;4159679;28;20049;-67
2024/02/06 03:10:51;;;;;;;7.38;4.18;;;;;;;9.63;42.57;94994.19;4177297;28;20148;-68
2024/02/06 03:12:53;;;;;;;9.07;4.85;;;;;;;9.76;42.50;95005.13;4180019;28;20498;-68
2024/02/06 03:14:55;;;;;;;10.32;4.90;;;;;;;9.87;41.80;95003.28;4179791;28;20049;-66
2024/02/06 03:16:57;;;;;;;9.27;4.18;;;;;;;9.76;41.79;94992.06;4157511;28;20136;-67
2024/02/06 03:18:58;;;;;;;10.20;4.70;;;;;;;9.79;41.91;94998.81;4165549;28;20083;-70
2024/02/06 03:21:00;;;;;;;7.75;4.13;;;;;;;9.50;42.55;95006.78;4180229;28;20072;-69
2024/02/06 03:23:02;;;;;;;11.82;5.03;;;;;;;9.32;43.02;95014.59;4182203;28;20057;-69
2024/02/06 03:25:04;;;;;;;10.65;4.88;;;;;;;9.20;43.00;95009.50;4174566;28;20045;-68
2024/02/06 03:27:07;;;;;;;16.75;7.03;;;;;;;9.20;42.92;95019.97;4182122;28;20476;-68
2024/02/06 03:29:09;;;;;;;13.43;6.88;;;;;;;9.31;43.28;95018.97;4178994;28;20452;-68
2024/02/06 03:31:10;;;;;;;9.82;5.88;;;;;;;9.40;43.03;95027.78;4164528;28;20049;-68
2024/02/06 03:33:12;;;;;;;12.10;5.95;;;;;;;9.41;42.33;95027.59;4186408;28;20052;-68
2024/02/06 03:35:15;;;;;;;9.80;5.70;;;;;;;9.51;42.65;95024.16;4150967;28;20050;-68
2024/02/06 03:37:18;;;;;;;10.75;5.55;;;;;;;9.60;42.71;95023.28;4165022;28;20061;-65
2024/02/06 03:39:21;;;;;;;10.18;5.40;;;;;;;9.59;43.19;95026.84;4180690;28;20044;-66
2024/02/06 03:41:23;;;;;;;9.27;5.10;;;;;;;9.62;43.35;95026.56;4176773;28;20999;-69
2024/02/06 03:43:25;;;;;;;9.43;5.32;;;;;;;9.65;43.14;95018.41;4159436;28;20104;-69
2024/02/06 03:45:28;;;;;;;11.68;5.72;;;;;;;9.65;43.65;95021.03;4175692;28;20488;-68
2024/02/06 03:47:29;;;;;;;16.07;6.40;;;;;;;9.72;43.48;95024.75;4142911;28;20052;-69
2024/02/06 03:49:31;;;;;;;12.10;6.60;;;;;;;9.67;44.28;95026.94;4174150;28;20057;-69
2024/02/06 03:51:34;;;;;;;17.35;7.13;;;;;;;9.67;43.96;95024.34;4159163;28;20548;-66
2024/02/06 03:53:35;;;;;;;12.57;5.60;;;;;;;9.63;44.12;95028.19;4160635;28;20161;-68
2024/02/06 03:55:37;;;;;;;11.13;6.70;;;;;;;9.55;44.54;95020.25;4173895;28;20120;-68
2024/02/06 03:57:39;;;;;;;13.73;7.78;;;;;;;9.48;45.80;95029.66;4181441;28;20056;-68
2024/02/06 03:59:42;;;;;;;13.75;8.05;;;;;;;9.37;45.76;95022.81;4169700;28;20052;-69
2024/02/06 04:01:44;;;;;;;13.67;8.37;;;;;;;9.26;46.75;95030.84;4176467;28;20096;-68
2024/02/06 04:03:46;;;;;;;13.93;7.50;;;;;;;9.24;46.72;95025.75;4165721;28;20052;-68
2024/02/06 04:05:48;;;;;;;15.00;8.15;;;;;;;9.28;46.35;95029.72;4157950;28;20045;-68
2024/02/06 04:07:49;;;;;;;18.13;8.57;;;;;;;9.36;46.04;95024.63;4184897;28;20057;-69
2024/02/06 04:09:51;;;;;;;15.48;8.52;;;;;;;9.15;46.93;95027.44;4158250;28;20045;-67
2024/02/06 04:11:53;;;;;;;15.50;8.48;;;;;;;9.16;47.50;95038.69;4179714;28;20044;-70
2024/02/06 04:13:55;;;;;;;12.13;8.30;;;;;;;9.11;47.04;95036.50;4179644;28;20057;-68
2024/02/06 04:15:57;;;;;;;20.08;9.82;;;;;;;8.98;48.21;95026.38;4177848;28;20063;-68
2024/02/06 04:17:59;;;;;;;15.75;8.38;;;;;;;8.84;48.10;95036.44;4177943;28;20040;-69
2024/02/06 04:20:02;;;;;;;18.15;8.52;;;;;;;8.83;48.01;95022.56;4178757;28;20048;-69
2024/02/06 04:22:04;;;;;;;18.20;9.30;;;;;;;8.88;48.05;95036.00;4184038;28;20036;-69
2024/02/06 04:24:08;;;;;;;16.73;8.57;;;;;;;8.86;48.09;95032.72;4154363;28;20049;-70
2024/02/06 04:26:10;;;;;;;18.95;9.00;;;;;;;8.83;48.32;95019.94;4158897;28;20109;-68
2024/02/06 04:28:12;;;;;;;19.67;9.45;;;;;;;8.81;48.33;95027.09;4183959;28;20137;-70
2024/02/06 04:30:14;;;;;;;16.35;8.77;;;;;;;8.82;48.01;95031.38;4165276;28;20465;-69
2024/02/06 04:32:17;;;;;;;25.33;9.90;;;;;;;8.82;48.80;95032.19;4176295;28;20439;-68
2024/02/06 04:34:19;;;;;;;18.15;9.75;;;;;;;8.90;48.07;95033.25;4159671;28;20127;-70
2024/02/06 04:36:22;;;;;;;13.93;8.75;;;;;;;8.95;48.21;95037.13;4176174;28;20136;-69
2024/02/06 04:38:24;;;;;;;18.80;8.63;;;;;;;8.87;48.81;95031.75;4166585;28;20559;-69
2024/02/06 04:40:26;;;;;;;14.00;8.65;;;;;;;8.90;48.21;95036.69;4164558;28;20053;-67
2024/02/06 04:42:28;;;;;;;20.20;9.18;;;;;;;8.74;48.81;95029.44;4178956;28;20137;-68
2024/02/06 04:44:30;;;;;;;17.98;9.23;;;;;;;8.69;49.33;95046.47;4164416;28;20053;-68
2024/02/06 04:46:31;;;;;;;21.75;9.25;;;;;;;8.60;49.14;95035.94;4150727;28;20050;-70
2024/02/06 04:48:34;;;;;;;15.80;9.45;;;;;;;8.66;49.32;95029.31;4179103;28;20056;-68
2024/02/06 04:50:35;;;;;;;19.20;10.63;;;;;;;8.68;49.33;95034.41;4177929;28;20472;-68
2024/02/06 04:52:37;;;;;;;20.20;10.20;;;;;;;8.55;49.92;95048.56;4174361;28;20125;-68
2024/02/06 04:54:43;;;;;;;15.85;10.32;;;;;;;8.55;49.53;95038.13;4173203;28;20056;-69
2024/02/06 04:56:45;;;;;;;17.90;10.55;;;;;;;8.63;49.38;95054.91;4179353;28;20057;-66
2024/02/06 04:58:46;;;;;;;15.73;10.07;;;;;;;8.66;49.14;95037.16;4176339;28;20045;-68
2024/02/06 05:00:48;;;;;;;17.80;10.38;;;;;;;8.64;49.33;95035.63;4158582;28;20500;-70
2024/02/06 05:02:50;;;;;;;19.38;10.00;;;;;;;8.46;49.92;95048.56;4154963;28;20408;-71
2024/02/06 05:04:52;;;;;;;19.83;10.45;;;;;;;8.39;50.70;95032.59;4151870;28;20496;-73
2024/02/06 05:06:54;;;;;;;16.60;9.95;;;;;;;8.40;50.18;95044.69;4154138;28;20091;-70
2024/02/06 05:08:59;;;;;;;20.58;9.80;;;;;;;8.31;50.63;95048.94;4157796;28;20046;-68
2024/02/06 05:11:03;;;;;;;22.17;10.13;;;;;;;8.34;50.79;95048.66;4173988;28;20041;-70
2024/02/06 05:13:05;;;;;;;;;;;;;;;8.39;50.00;95046.47;4152366;28;20053;-69
2024/02/06 05:15:08;;;;;;;24.30;10.85;;;;;;;8.43;50.68;95048.84;4161751;28;19932;-71
2024/02/06 05:17:09;;;;;;;23.20;11.25;;;;;;;8.41;50.41;95051.59;4178997;28;20068;-70
2024/02/06 05:19:14;;;;;;;22.48;10.40;;;;;;;8.30;50.53;95042.09;4161232;28;20060;-69
2024/02/06 05:21:16;;;;;;;20.60;11.07;;;;;;;8.28;50.71;95040.53;4178280;28;20559;-70
2024/02/06 05:23:19;;;;;;;18.85;10.70;;;;;;;8.01;51.32;95057.69;4171462;28;20049;-68
2024/02/06 05:25:21;;;;;;;19.85;13.18;;;;;;;7.78;51.76;95044.88;4176005;28;20053;-71
2024/02/06 05:27:25;;;;;;;24.77;12.88;;;;;;;7.89;51.57;95051.75;4177360;28;20045;-71
2024/02/06 05:29:27;;;;;;;22.75;11.30;;;;;;;7.99;51.62;95060.44;4161718;28;20046;-71
2024/02/06 05:31:29;;;;;;;24.17;11.38;;;;;;;8.04;51.71;95057.41;4177462;28;20048;-70
2024/02/06 05:33:30;;;;;;;34.47;11.45;;;;;;;8.07;51.50;95051.94;4183788;28;20683;-69
2024/02/06 05:35:32;;;;;;;17.05;11.23;;;;;;;8.12;51.15;95062.78;4179610;28;20049;-69
2024/02/06 05:37:34;;;;;;;22.73;12.32;;;;;;;8.09;51.36;95059.66;4170629;28;20518;-70
2024/02/06 05:39:36;;;;;;;22.00;11.52;;;;;;;8.10;50.71;95062.09;4176578;28;20519;-69
2024/02/06 05:41:41;;;;;;;27.95;11.82;;;;;;;8.12;50.92;95059.38;4166857;28;20053;-69
2024/02/06 05:43:44;;;;;;;30.08;12.93;;;;;;;8.16;51.23;95042.47;4162133;28;20049;-69
2024/02/06 05:45:45;;;;;;;22.55;11.80;;;;;;;8.27;50.70;95049.34;4183785;28;20068;-68
2024/02/06 05:47:47;;;;;;;20.75;11.48;;;;;;;8.30;50.82;95052.53;4180174;28;20049;-68
2024/02/06 05:49:50;;;;;;;24.33;12.35;;;;;;;8.31;50.44;95048.94;4179552;28;20380;-69
2024/02/06 05:51:52;;;;;;;24.52;11.32;;;;;;;8.20;51.02;95038.63;4179711;28;20055;-70
2024/02/06 05:53:53;;;;;;;23.42;11.25;;;;;;;8.21;51.89;95054.13;4175430;28;20061;-69
2024/02/06 05:55:55;;;;;;;27.60;11.77;;;;;;;8.33;52.10;95052.25;4178686;28;20446;-68
2024/02/06 05:57:57;;;;;;;19.52;11.05;;;;;;;8.42;50.45;95050.63;4168421;28;20547;-70
2024/02/06 05:59:59;;;;;;;22.05;10.85;;;;;;;8.54;49.94;95049.53;4173848;28;20094;-69
2024/02/06 06:02:01;;;;;;;21.90;10.32;;;;;;;8.59;50.46;95043.91;4179281;28;20084;-70
2024/02/06 06:04:03;;;;;;;24.67;12.20;;;;;;;8.59;50.34;95043.91;4180225;28;20067;-72
2024/02/06 06:06:05;;;;;;;31.48;12.32;;;;;;;8.58;49.49;95045.69;4178310;28;20049;-70
2024/02/06 06:08:09;;;;;;;36.20;12.43;;;;;;;8.02;50.31;95061.94;4182184;28;20056;-70
2024/02/06 06:10:12;;;;;;;34.65;11.60;;;;;;;7.91;51.35;95052.44;4181909;28;20408;-70
2024/02/06 06:12:14;;;;;;;29.73;11.75;;;;;;;7.96;51.15;95057.28;4180414;28;20069;-71
2024/02/06 06:14:16;;;;;;;26.00;11.40;;;;;;;8.11;51.74;95061.16;4181211;28;20053;-71
2024/02/06 06:16:18;;;;;;;21.75;11.98;;;;;;;7.92;51.55;95058.50;4177317;28;20056;-70
2024/02/06 06:18:19;;;;;;;24.88;11.55;;;;;;;8.06;51.30;95065.13;4185909;28;21443;-72
2024/02/06 06:20:21;;;;;;;26.92;11.15;;;;;;;8.23;51.03;95058.41;4179020;28;20462;-72
2024/02/06 06:22:23;;;;;;;31.33;11.63;;;;;;;8.35;51.32;95071.19;4186098;28;20048;-71
2024/02/06 06:24:25;;;;;;;20.23;11.48;;;;;;;8.49;51.18;95064.78;4190247;28;20468;-71
2024/02/06 06:26:27;;;;;;;28.40;12.45;;;;;;;8.67;50.12;95069.31;4184546;28;20480;-69
2024/02/06 06:28:29;;;;;;;26.02;11.82;;;;;;;8.82;49.03;95071.38;4184339;28;20119;-71
2024/02/06 06:30:31;;;;;;;23.25;11.50;;;;;;;8.92;48.82;95068.72;4170809;28;20073;-70
2024/02/06 06:32:34;;;;;;;27.90;11.10;;;;;;;8.98;49.38;95070.78;4178979;28;20115;-71
2024/02/06 06:34:36;;;;;;;23.45;11.45;;;;;;;9.12;48.84;95073.91;4190640;28;20052;-70
2024/02/06 06:36:38;;;;;;;23.05;11.52;;;;;;;9.27;48.64;95076.91;4183764;28;20140;-71
2024/02/06 06:38:40;;;;;;;21.17;10.95;;;;;;;9.24;47.67;95072.81;4182152;28;20144;-72
2024/02/06 06:40:42;;;;;;;21.17;10.48;;;;;;;9.31;47.58;95070.44;4180350;28;20049;-71
2024/02/06 06:42:43;;;;;;;22.75;11.07;;;;;;;9.32;48.10;95072.94;4178790;28;20052;-70
2024/02/06 06:44:45;;;;;;;26.73;11.98;;;;;;;9.42;47.03;95073.72;4176182;28;20052;-70
2024/02/06 06:46:48;;;;;;;27.20;10.27;;;;;;;9.43;46.97;95069.31;4177717;28;20060;-69
2024/02/06 06:48:50;;;;;;;23.40;11.53;;;;;;;9.37;47.63;95067.25;4175327;28;20069;-71
2024/02/06 06:50:52;;;;;;;26.65;10.77;;;;;;;9.35;47.67;95069.19;4176999;28;20053;-71
2024/02/06 06:52:58;;;;;;;24.80;11.02;;;;;;;9.37;46.93;95068.09;4154239;28;20649;-70
2024/02/06 06:55:00;;;;;;;22.50;11.10;;;;;;;9.44;47.01;95070.94;4184552;28;20570;-70
2024/02/06 06:57:05;;;;;;;26.33;10.43;;;;;;;9.61;47.41;95059.75;4185144;28;20067;-71
2024/02/06 06:59:07;;;;;;;25.13;10.98;;;;;;;9.80;46.86;95058.00;4162027;28;20191;-70
2024/02/06 07:01:09;;;;;;;23.02;10.50;;;;;;;9.93;46.07;95061.09;4157827;28;20053;-70
2024/02/06 07:03:11;;;;;;;26.38;11.20;;;;;;;10.01;45.65;95048.09;4180731;28;20043;-70
2024/02/06 07:05:13;;;;;;;24.80;10.85;;;;;;;10.15;45.35;95049.41;4180821;28;20060;-70
2024/02/06 07:07:15;;;;;;;33.40;11.30;;;;;;;10.31;45.48;95053.19;4178911;28;20080;-72
2024/02/06 07:09:18;;;;;;;46.22;12.82;;;;;;;10.32;45.17;95055.66;4187010;28;20111;-72
2024/02/06 07:11:20;;;;;;;16.83;9.95;;;;;;;10.21;44.88;95053.22;4177386;28;20080;-71
2024/02/06 07:13:22;;;;;;;23.58;10.65;;;;;;;10.22;44.69;95050.47;4176333;28;20155;-70
2024/02/06 07:15:25;;;;;;;31.17;11.05;;;;;;;10.32;44.69;95057.44;4180143;28;20052;-70
2024/02/06 07:17:26;;;;;;;21.75;11.40;;;;;;;10.43;44.79;95057.22;4158716;28;20050;-70
2024/02/06 07:19:29;;;;;;;24.00;11.32;;;;;;;10.35;44.65;95055.38;4173190;28;20072;-70
2024/02/06 07:21:31;;;;;;;29.48;14.07;;;;;;;10.23;44.76;95054.72;4176340;28;20132;-69
2024/02/06 07:23:33;;;;;;;23.35;10.45;;;;;;;10.09;44.42;95055.25;4179325;28;20037;-70
2024/02/06 07:25:34;;;;;;;19.85;9.68;;;;;;;10.09;44.94;95042.16;4177790;28;20044;-70
2024/02/06 07:27:38;;;;;;;20.38;10.13;;;;;;;10.31;44.57;95048.78;4159566;28;20165;-70
2024/02/06 07:29:40;;;;;;;19.65;9.65;;;;;;;10.45;43.85;95053.50;4176095;28;20044;-70
2024/02/06 07:31:42;;;;;;;26.02;9.98;;;;;;;10.30;44.28;95054.97;4174816;28;20049;-71
2024/02/06 07:33:44;;;;;;;18.17;9.32;;;;;;;10.46;44.14;95051.72;4174307;28;20392;-69
2024/02/06 07:35:46;;;;;;;14.90;8.95;;;;;;;10.51;43.38;95056.50;4172145;28;20512;-70
2024/02/06 07:37:47;;;;;;;19.60;8.52;;;;;;;10.41;43.28;95062.63;4176954;28;20052;-70
2024/02/06 07:39:49;;;;;;;18.02;7.88;;;;;;;10.53;43.15;95060.59;4164208;28;20059;-70
2024/02/06 07:41:51;;;;;;;19.95;9.23;;;;;;;10.73;42.97;95050.78;4159099;28;20049;-72
2024/02/06 07:43:53;;;;;;;13.77;8.02;;;;;;;10.86;42.45;95053.00;4173654;28;20415;-71
2024/02/06 07:45:55;;;;;;;15.52;8.32;;;;;;;11.03;42.12;95044.31;4176225;28;20076;-72
2024/02/06 07:47:57;;;;;;;16.52;9.20;;;;;;;11.17;41.96;95047.34;4156823;28;20099;-70
2024/02/06 07:49:59;;;;;;;16.65;8.20;;;;;;;11.06;41.63;95045.81;4174904;28;20445;-68
2024/02/06 07:52:04;;;;;;;21.75;8.23;;;;;;;11.03;41.58;95046.09;4178646;28;20086;-71
2024/02/06 07:54:07;;;;;;;18.08;8.00;;;;;;;11.16;41.62;95038.63;4169385;28;20037;-71
2024/02/06 07:56:10;;;;;;;18.48;9.13;;;;;;;11.32;41.68;95045.81;4160826;28;20053;-69
2024/02/06 07:58:12;;;;;;;27.20;8.70;;;;;;;11.30;41.44;95041.69;4172175;28;20052;-71
2024/02/06 08:00:14;;;;;;;26.67;8.98;;;;;;;11.46;41.21;95037.38;4173141;28;20076;-70
2024/02/06 08:02:16;;;;;;;18.88;8.88;;;;;;;11.60;41.01;95032.50;4178334;28;20049;-71
2024/02/06 08:04:18;;;;;;;19.70;7.85;;;;;;;11.62;40.80;95041.88;4176527;28;20064;-70
2024/02/06 08:06:20;;;;;;;16.08;8.52;;;;;;;11.61;40.36;95042.00;4180169;28;20045;-70
2024/02/06 08:08:22;;;;;;;16.67;7.95;;;;;;;11.52;40.68;95041.16;4186994;28;20406;-70
2024/02/06 08:10:24;;;;;;;23.83;9.20;;;;;;;11.59;40.79;95038.72;4163595;28;20060;-71
2024/02/06 08:12:28;;;;;;;21.40;8.07;;;;;;;11.87;40.54;95034.09;4159481;28;20053;-69
2024/02/06 08:14:30;;;;;;;21.10;8.93;;;;;;;11.91;40.05;95032.81;4162763;28;20065;-71
2024/02/06 08:16:31;;;;;;;15.32;8.15;;;;;;;11.82;40.25;95036.38;4174447;28;20053;-71
2024/02/06 08:18:33;;;;;;;20.02;8.45;;;;;;;12.07;40.29;95037.31;4176639;28;20057;-71
2024/02/06 08:20:35;;;;;;;17.63;8.20;;;;;;;12.32;39.40;95035.53;4175340;28;20048;-69
2024/02/06 08:22:37;;;;;;;17.90;8.30;;;;;;;12.31;39.58;95041.81;4177689;28;20140;-70
2024/02/06 08:24:39;;;;;;;15.68;8.23;;;;;;;12.48;39.48;95038.22;4171132;28;20113;-71
2024/02/06 08:26:41;;;;;;;24.27;11.30;;;;;;;12.55;39.10;95042.81;4170007;28;20081;-71
2024/02/06 08:28:43;;;;;;;17.67;8.38;;;;;;;12.70;39.29;95038.56;4166392;28;20361;-71
2024/02/06 08:30:47;;;;;;;19.02;8.52;;;;;;;12.81;38.68;95037.41;4157417;28;20091;-71
2024/02/06 08:32:50;;;;;;;19.48;8.20;;;;;;;12.96;38.57;95035.75;4173520;28;20045;-73
2024/02/06 08:34:51;;;;;;;18.75;7.03;;;;;;;13.12;38.03;95032.31;4175939;28;20049;-68
2024/02/06 08:36:53;;;;;;;18.98;7.53;;;;;;;13.27;37.36;95040.31;4172784;28;20126;-71
2024/02/06 08:38:57;;;;;;;21.27;7.55;;;;;;;13.20;37.03;95042.00;4179479;28;20107;-68
2024/02/06 08:41:00;;;;;;;17.90;8.35;;;;;;;13.04;37.51;95042.84;4177845;28;20495;-70
2024/02/06 08:43:03;;;;;;;27.23;13.55;;;;;;;12.94;37.91;95042.19;4173070;28;20385;-71
2024/02/06 08:45:07;;;;;;;24.80;11.73;;;;;;;12.96;37.69;95037.56;4181603;28;20799;-70
2024/02/06 08:47:12;;;;;;;21.90;10.40;;;;;;;13.01;37.42;95041.34;4184328;28;20054;-71
2024/02/06 08:49:14;;;;;;;18.35;9.98;;;;;;;13.10;37.25;95037.72;4181292;28;20536;-71
2024/02/06 08:51:16;;;;;;;20.30;9.93;;;;;;;13.04;37.00;95043.66;4176187;28;20041;-71
2024/02/06 08:53:18;;;;;;;30.30;8.77;;;;;;;13.18;37.47;95036.88;4180467;28;20479;-72
2024/02/06 08:55:20;;;;;;;19.02;8.65;;;;;;;13.34;37.08;95032.63;4180350;28;20468;-70
2024/02/06 08:57:22;;;;;;;21.15;8.10;;;;;;;13.58;36.73;95029.94;4177430;28;20656;-70
2024/02/06 08:59:24;;;;;;;19.25;7.25;;;;;;;13.39;35.62;95039.03;4179415;28;20067;-71
2024/02/06 09:01:27;;;;;;;15.13;7.35;;;;;;;13.00;35.68;95036.25;4177917;28;20053;-72
2024/02/06 09:03:29;;;;;;;12.45;7.70;;;;;;;13.15;35.99;95034.59;4180233;28;20036;-70
2024/02/06 09:05:31;;;;;;;12.55;7.68;;;;;;;13.34;35.97;95038.72;4182352;28;20378;-72
2024/02/06 09:07:33;;;;;;;13.20;7.25;;;;;;;13.39;35.51;95033.75;4179962;28;20238;-70
2024/02/06 09:09:36;;;;;;;12.52;6.97;;;;;;;13.57;35.35;95033.53;4180587;28;20123;-71
2024/02/06 09:11:40;;;;;;;15.57;7.65;;;;;;;13.65;35.13;95025.63;4175723;28;20132;-71
2024/02/06 09:13:42;;;;;;;;;;;;;;;13.72;35.10;95023.13;4173831;28;20087;-72
2024/02/06 09:15:44;;;;;;;17.73;6.93;;;;;;;13.73;34.87;95022.16;4158898;28;19925;-71
2024/02/06 09:17:47;;;;;;;14.27;7.43;;;;;;;13.61;34.91;95026.94;4181481;28;20045;-70
2024/02/06 09:19:49;;;;;;;13.40;6.70;;;;;;;13.67;34.66;95025.47;4170916;28;20480;-71
2024/02/06 09:21:51;;;;;;;17.17;7.20;;;;;;;13.63;34.87;95024.97;4183198;28;20200;-70
2024/02/06 09:23:53;;;;;;;13.52;7.25;;;;;;;13.76;34.84;95019.16;4185317;28;20049;-72
2024/02/06 09:25:55;;;;;;;12.90;6.68;;;;;;;13.49;34.88;95018.59;4174078;28;20593;-71
2024/02/06 09:27:57;;;;;;;13.43;6.35;;;;;;;13.35;35.02;95015.84;4181625;28;20120;-70
2024/02/06 09:29:59;;;;;;;12.25;7.07;;;;;;;13.42;35.38;95015.03;4171227;28;20050;-71
2024/02/06 09:32:01;;;;;;;21.58;7.00;;;;;;;13.59;35.22;95018.41;4174733;28;20045;-71
2024/02/06 09:34:03;;;;;;;15.38;7.25;;;;;;;13.68;34.66;95009.50;4166660;28;20045;-70